sensor_id;sensor_type;location;lat;lon;timestamp;P1;durP1;ratioP1;P2;durP2;ratioP2
19255;SDS011;9762;52.490;13.410;2023-07-16T00:00:49;3.25;;;3.05;;
19255;SDS011;9762;52.490;13.410;2023-07-16T00:03:15;3.42;;;3.13;;
19255;SDS011;9762;52.490;13.410;2023-07-16T00:05:41;3.95;;;2.80;;
19255;SDS011;9762;52.490;13.410;2023-07-16T00:08:07;3.90;;;3.70;;
19255;SDS011;9762;52.490;13.410;2023-07-16T00:10:34;5.03;;;3.28;;
19255;SDS011;9762;52.490;13.410;2023-07-16T00:13:01;2.80;;;2.60;;
19255;SDS011;9762;52.490;13.410;2023-07-16T00:15:28;2.97;;;2.80;;
19255;SDS011;9762;52.490;13.410;2023-07-16T00:17:53;3.42;;;3.20;;
19255;SDS011;9762;52.490;13.410;2023-07-16T00:20:20;2.47;;;2.35;;
19255;SDS011;9762;52.490;13.410;2023-07-16T00:22:46;2.50;;;2.40;;
19255;SDS011;9762;52.490;13.410;2023-07-16T00:25:11;3.72;;;3.47;;
19255;SDS011;9762;52.490;13.410;2023-07-16T00:27:37;3.15;;;2.95;;
19255;SDS011;9762;52.490;13.410;2023-07-16T00:30:03;3.50;;;3.20;;
19255;SDS011;9762;52.490;13.410;2023-07-16T00:32:29;2.97;;;2.80;;
19255;SDS011;9762;52.490;13.410;2023-07-16T00:34:54;2.72;;;2.60;;
19255;SDS011;9762;52.490;13.410;2023-07-16T00:37:20;2.28;;;2.05;;
19255;SDS011;9762;52.490;13.410;2023-07-16T00:39:46;5.03;;;2.80;;
19255;SDS011;9762;52.490;13.410;2023-07-16T00:42:11;3.15;;;2.95;;
19255;SDS011;9762;52.490;13.410;2023-07-16T00:44:37;3.00;;;2.75;;
19255;SDS011;9762;52.490;13.410;2023-07-16T00:47:03;2.65;;;2.55;;
19255;SDS011;9762;52.490;13.410;2023-07-16T00:49:28;2.50;;;2.38;;
19255;SDS011;9762;52.490;13.410;2023-07-16T00:51:54;4.18;;;3.88;;
19255;SDS011;9762;52.490;13.410;2023-07-16T00:54:20;4.07;;;3.88;;
19255;SDS011;9762;52.490;13.410;2023-07-16T00:56:47;3.35;;;3.08;;
19255;SDS011;9762;52.490;13.410;2023-07-16T00:59:13;3.13;;;2.83;;
19255;SDS011;9762;52.490;13.410;2023-07-16T01:01:39;2.65;;;2.55;;
19255;SDS011;9762;52.490;13.410;2023-07-16T01:04:05;5.57;;;3.58;;
19255;SDS011;9762;52.490;13.410;2023-07-16T01:06:34;3.47;;;2.67;;
19255;SDS011;9762;52.490;13.410;2023-07-16T01:11:33;3.55;;;3.25;;
19255;SDS011;9762;52.490;13.410;2023-07-16T01:14:00;7.13;;;4.03;;
19255;SDS011;9762;52.490;13.410;2023-07-16T01:16:27;3.42;;;3.28;;
19255;SDS011;9762;52.490;13.410;2023-07-16T01:18:53;3.63;;;3.38;;
19255;SDS011;9762;52.490;13.410;2023-07-16T01:21:19;4.60;;;3.38;;
19255;SDS011;9762;52.490;13.410;2023-07-16T01:29:33;3.47;;;3.13;;
19255;SDS011;9762;52.490;13.410;2023-07-16T01:32:02;4.87;;;3.70;;
19255;SDS011;9762;52.490;13.410;2023-07-16T01:34:31;3.60;;;3.10;;
19255;SDS011;9762;52.490;13.410;2023-07-16T01:36:59;4.57;;;3.73;;
19255;SDS011;9762;52.490;13.410;2023-07-16T01:39:26;3.53;;;3.33;;
19255;SDS011;9762;52.490;13.410;2023-07-16T01:41:52;4.40;;;3.83;;
19255;SDS011;9762;52.490;13.410;2023-07-16T01:44:17;4.00;;;3.80;;
19255;SDS011;9762;52.490;13.410;2023-07-16T01:46:43;4.70;;;4.30;;
19255;SDS011;9762;52.490;13.410;2023-07-16T01:49:09;3.57;;;3.27;;
19255;SDS011;9762;52.490;13.410;2023-07-16T01:51:34;5.93;;;3.50;;
19255;SDS011;9762;52.490;13.410;2023-07-16T01:54:00;3.63;;;3.43;;
19255;SDS011;9762;52.490;13.410;2023-07-16T01:56:25;4.53;;;3.53;;
19255;SDS011;9762;52.490;13.410;2023-07-16T01:58:51;4.23;;;3.03;;
19255;SDS011;9762;52.490;13.410;2023-07-16T02:01:17;6.53;;;3.17;;
19255;SDS011;9762;52.490;13.410;2023-07-16T02:03:42;2.70;;;2.60;;
19255;SDS011;9762;52.490;13.410;2023-07-16T02:06:08;3.73;;;3.20;;
19255;SDS011;9762;52.490;13.410;2023-07-16T02:08:34;3.57;;;3.27;;
19255;SDS011;9762;52.490;13.410;2023-07-16T02:10:59;3.50;;;3.20;;
19255;SDS011;9762;52.490;13.410;2023-07-16T02:13:25;3.03;;;2.80;;
19255;SDS011;9762;52.490;13.410;2023-07-16T02:15:52;2.40;;;2.30;;
19255;SDS011;9762;52.490;13.410;2023-07-16T02:18:17;3.33;;;3.03;;
19255;SDS011;9762;52.490;13.410;2023-07-16T02:20:43;2.60;;;2.40;;
19255;SDS011;9762;52.490;13.410;2023-07-16T02:23:09;2.80;;;2.70;;
19255;SDS011;9762;52.490;13.410;2023-07-16T02:25:34;2.83;;;2.60;;
19255;SDS011;9762;52.490;13.410;2023-07-16T02:28:00;2.93;;;2.63;;
19255;SDS011;9762;52.490;13.410;2023-07-16T02:30:26;2.43;;;2.00;;
19255;SDS011;9762;52.490;13.410;2023-07-16T02:32:52;2.87;;;2.67;;
19255;SDS011;9762;52.490;13.410;2023-07-16T02:35:18;2.87;;;2.60;;
19255;SDS011;9762;52.490;13.410;2023-07-16T02:37:43;4.83;;;2.90;;
19255;SDS011;9762;52.490;13.410;2023-07-16T02:40:09;2.97;;;2.77;;
19255;SDS011;9762;52.490;13.410;2023-07-16T02:42:35;2.70;;;2.50;;
19255;SDS011;9762;52.490;13.410;2023-07-16T02:45:00;2.20;;;2.10;;
19255;SDS011;9762;52.490;13.410;2023-07-16T02:47:26;3.07;;;2.83;;
19255;SDS011;9762;52.490;13.410;2023-07-16T02:49:52;1.97;;;1.87;;
19255;SDS011;9762;52.490;13.410;2023-07-16T02:52:17;2.57;;;2.40;;
19255;SDS011;9762;52.490;13.410;2023-07-16T02:54:43;2.57;;;2.47;;
19255;SDS011;9762;52.490;13.410;2023-07-16T02:57:09;2.67;;;2.47;;
19255;SDS011;9762;52.490;13.410;2023-07-16T02:59:35;2.33;;;2.20;;
19255;SDS011;9762;52.490;13.410;2023-07-16T03:02:00;2.57;;;2.37;;
19255;SDS011;9762;52.490;13.410;2023-07-16T03:04:26;3.53;;;2.60;;
19255;SDS011;9762;52.490;13.410;2023-07-16T03:06:51;2.77;;;2.57;;
19255;SDS011;9762;52.490;13.410;2023-07-16T03:09:17;2.50;;;2.40;;
19255;SDS011;9762;52.490;13.410;2023-07-16T03:11:43;2.57;;;2.47;;
19255;SDS011;9762;52.490;13.410;2023-07-16T03:14:08;2.60;;;2.40;;
19255;SDS011;9762;52.490;13.410;2023-07-16T03:16:34;3.43;;;2.47;;
19255;SDS011;9762;52.490;13.410;2023-07-16T03:18:59;2.20;;;2.10;;
19255;SDS011;9762;52.490;13.410;2023-07-16T03:21:25;2.70;;;2.50;;
19255;SDS011;9762;52.490;13.410;2023-07-16T03:23:51;2.27;;;2.10;;
19255;SDS011;9762;52.490;13.410;2023-07-16T03:26:16;3.20;;;2.00;;
19255;SDS011;9762;52.490;13.410;2023-07-16T03:28:42;2.40;;;2.30;;
19255;SDS011;9762;52.490;13.410;2023-07-16T03:31:07;2.17;;;2.07;;
19255;SDS011;9762;52.490;13.410;2023-07-16T03:33:33;2.47;;;2.30;;
19255;SDS011;9762;52.490;13.410;2023-07-16T03:35:59;2.07;;;2.03;;
19255;SDS011;9762;52.490;13.410;2023-07-16T03:38:24;2.63;;;2.40;;
19255;SDS011;9762;52.490;13.410;2023-07-16T03:40:50;2.30;;;2.20;;
19255;SDS011;9762;52.490;13.410;2023-07-16T03:43:16;3.70;;;1.83;;
19255;SDS011;9762;52.490;13.410;2023-07-16T03:45:42;2.30;;;2.13;;
19255;SDS011;9762;52.490;13.410;2023-07-16T03:48:08;4.10;;;3.10;;
19255;SDS011;9762;52.490;13.410;2023-07-16T03:50:34;2.70;;;2.60;;
19255;SDS011;9762;52.490;13.410;2023-07-16T03:53:01;2.27;;;2.17;;
19255;SDS011;9762;52.490;13.410;2023-07-16T03:55:28;2.27;;;2.17;;
19255;SDS011;9762;52.490;13.410;2023-07-16T03:57:54;2.10;;;1.90;;
19255;SDS011;9762;52.490;13.410;2023-07-16T04:00:19;2.07;;;1.90;;
19255;SDS011;9762;52.490;13.410;2023-07-16T04:02:45;2.40;;;2.20;;
19255;SDS011;9762;52.490;13.410;2023-07-16T04:05:11;2.07;;;1.97;;
19255;SDS011;9762;52.490;13.410;2023-07-16T04:07:37;2.00;;;1.90;;
19255;SDS011;9762;52.490;13.410;2023-07-16T04:10:02;2.20;;;2.00;;
19255;SDS011;9762;52.490;13.410;2023-07-16T04:12:28;2.57;;;2.37;;
19255;SDS011;9762;52.490;13.410;2023-07-16T04:14:55;2.43;;;2.23;;
19255;SDS011;9762;52.490;13.410;2023-07-16T04:17:22;2.90;;;2.03;;
19255;SDS011;9762;52.490;13.410;2023-07-16T04:19:48;2.50;;;2.40;;
19255;SDS011;9762;52.490;13.410;2023-07-16T04:22:14;2.30;;;2.20;;
19255;SDS011;9762;52.490;13.410;2023-07-16T04:24:39;2.40;;;2.30;;
19255;SDS011;9762;52.490;13.410;2023-07-16T04:27:05;2.20;;;2.00;;
19255;SDS011;9762;52.490;13.410;2023-07-16T04:29:31;3.13;;;2.40;;
19255;SDS011;9762;52.490;13.410;2023-07-16T04:31:56;2.43;;;2.30;;
19255;SDS011;9762;52.490;13.410;2023-07-16T04:34:22;4.63;;;2.03;;
19255;SDS011;9762;52.490;13.410;2023-07-16T04:36:47;2.27;;;2.17;;
19255;SDS011;9762;52.490;13.410;2023-07-16T04:39:13;2.90;;;2.00;;
19255;SDS011;9762;52.490;13.410;2023-07-16T04:41:39;2.40;;;2.30;;
19255;SDS011;9762;52.490;13.410;2023-07-16T04:44:04;2.47;;;2.37;;
19255;SDS011;9762;52.490;13.410;2023-07-16T04:46:30;4.27;;;2.00;;
19255;SDS011;9762;52.490;13.410;2023-07-16T04:48:56;2.23;;;2.03;;
19255;SDS011;9762;52.490;13.410;2023-07-16T04:51:22;2.37;;;2.17;;
19255;SDS011;9762;52.490;13.410;2023-07-16T04:53:48;3.17;;;2.23;;
19255;SDS011;9762;52.490;13.410;2023-07-16T04:56:14;2.43;;;2.23;;
19255;SDS011;9762;52.490;13.410;2023-07-16T04:58:41;2.07;;;1.97;;
19255;SDS011;9762;52.490;13.410;2023-07-16T05:01:07;2.03;;;1.93;;
19255;SDS011;9762;52.490;13.410;2023-07-16T05:03:34;2.20;;;2.10;;
19255;SDS011;9762;52.490;13.410;2023-07-16T05:05:59;2.20;;;2.10;;
19255;SDS011;9762;52.490;13.410;2023-07-16T05:08:25;4.57;;;2.63;;
19255;SDS011;9762;52.490;13.410;2023-07-16T05:10:51;2.57;;;2.37;;
19255;SDS011;9762;52.490;13.410;2023-07-16T05:13:17;3.20;;;2.73;;
19255;SDS011;9762;52.490;13.410;2023-07-16T05:15:45;2.80;;;2.60;;
19255;SDS011;9762;52.490;13.410;2023-07-16T05:18:12;2.97;;;2.87;;
19255;SDS011;9762;52.490;13.410;2023-07-16T05:20:37;3.00;;;2.80;;
19255;SDS011;9762;52.490;13.410;2023-07-16T05:23:03;2.33;;;2.23;;
19255;SDS011;9762;52.490;13.410;2023-07-16T05:25:29;2.33;;;2.23;;
19255;SDS011;9762;52.490;13.410;2023-07-16T05:27:55;2.43;;;2.33;;
19255;SDS011;9762;52.490;13.410;2023-07-16T05:30:21;2.20;;;2.10;;
19255;SDS011;9762;52.490;13.410;2023-07-16T05:32:47;3.27;;;3.07;;
19255;SDS011;9762;52.490;13.410;2023-07-16T05:35:12;2.20;;;2.10;;
19255;SDS011;9762;52.490;13.410;2023-07-16T05:37:38;2.73;;;2.63;;
19255;SDS011;9762;52.490;13.410;2023-07-16T05:40:04;2.63;;;2.53;;
19255;SDS011;9762;52.490;13.410;2023-07-16T05:42:30;3.13;;;2.60;;
19255;SDS011;9762;52.490;13.410;2023-07-16T05:44:56;2.80;;;2.60;;
19255;SDS011;9762;52.490;13.410;2023-07-16T05:47:22;1.97;;;1.87;;
19255;SDS011;9762;52.490;13.410;2023-07-16T05:49:47;2.33;;;2.20;;
19255;SDS011;9762;52.490;13.410;2023-07-16T05:52:13;2.10;;;2.10;;
19255;SDS011;9762;52.490;13.410;2023-07-16T05:54:38;3.00;;;2.80;;
19255;SDS011;9762;52.490;13.410;2023-07-16T05:57:04;2.73;;;2.53;;
19255;SDS011;9762;52.490;13.410;2023-07-16T05:59:30;2.70;;;2.60;;
19255;SDS011;9762;52.490;13.410;2023-07-16T06:02:01;2.77;;;2.60;;
19255;SDS011;9762;52.490;13.410;2023-07-16T06:04:27;2.70;;;2.50;;
19255;SDS011;9762;52.490;13.410;2023-07-16T06:06:52;2.27;;;1.83;;
19255;SDS011;9762;52.490;13.410;2023-07-16T06:09:18;2.80;;;2.60;;
19255;SDS011;9762;52.490;13.410;2023-07-16T06:11:45;2.57;;;2.30;;
19255;SDS011;9762;52.490;13.410;2023-07-16T06:14:12;3.73;;;2.67;;
19255;SDS011;9762;52.490;13.410;2023-07-16T06:16:38;2.30;;;2.20;;
19255;SDS011;9762;52.490;13.410;2023-07-16T06:19:03;2.97;;;2.77;;
19255;SDS011;9762;52.490;13.410;2023-07-16T06:21:29;4.80;;;2.33;;
19255;SDS011;9762;52.490;13.410;2023-07-16T06:23:54;4.80;;;2.83;;
19255;SDS011;9762;52.490;13.410;2023-07-16T06:26:20;3.07;;;2.87;;
19255;SDS011;9762;52.490;13.410;2023-07-16T06:28:45;7.60;;;2.87;;
19255;SDS011;9762;52.490;13.410;2023-07-16T06:31:14;8.13;;;2.67;;
19255;SDS011;9762;52.490;13.410;2023-07-16T06:33:40;2.37;;;2.27;;
19255;SDS011;9762;52.490;13.410;2023-07-16T06:36:06;3.63;;;2.90;;
19255;SDS011;9762;52.490;13.410;2023-07-16T06:38:31;3.00;;;2.80;;
19255;SDS011;9762;52.490;13.410;2023-07-16T06:40:57;3.03;;;2.83;;
19255;SDS011;9762;52.490;13.410;2023-07-16T06:43:23;2.53;;;2.43;;
19255;SDS011;9762;52.490;13.410;2023-07-16T06:45:49;2.70;;;2.60;;
19255;SDS011;9762;52.490;13.410;2023-07-16T06:48:18;2.43;;;2.27;;
19255;SDS011;9762;52.490;13.410;2023-07-16T06:50:43;2.67;;;2.27;;
19255;SDS011;9762;52.490;13.410;2023-07-16T06:53:09;3.27;;;2.73;;
19255;SDS011;9762;52.490;13.410;2023-07-16T06:55:34;3.30;;;2.27;;
19255;SDS011;9762;52.490;13.410;2023-07-16T06:58:01;2.77;;;2.23;;
19255;SDS011;9762;52.490;13.410;2023-07-16T07:00:26;2.23;;;2.10;;
19255;SDS011;9762;52.490;13.410;2023-07-16T07:02:52;2.37;;;2.27;;
19255;SDS011;9762;52.490;13.410;2023-07-16T07:05:18;2.27;;;2.07;;
19255;SDS011;9762;52.490;13.410;2023-07-16T07:07:43;2.70;;;2.50;;
19255;SDS011;9762;52.490;13.410;2023-07-16T07:10:10;3.70;;;2.20;;
19255;SDS011;9762;52.490;13.410;2023-07-16T07:12:39;2.43;;;2.33;;
19255;SDS011;9762;52.490;13.410;2023-07-16T07:15:05;2.70;;;2.60;;
19255;SDS011;9762;52.490;13.410;2023-07-16T07:17:31;2.93;;;2.73;;
19255;SDS011;9762;52.490;13.410;2023-07-16T07:19:57;4.00;;;2.80;;
19255;SDS011;9762;52.490;13.410;2023-07-16T07:22:23;4.03;;;2.40;;
19255;SDS011;9762;52.490;13.410;2023-07-16T07:24:49;2.70;;;2.50;;
19255;SDS011;9762;52.490;13.410;2023-07-16T07:27:15;3.15;;;2.85;;
19255;SDS011;9762;52.490;13.410;2023-07-16T07:29:41;2.92;;;2.58;;
19255;SDS011;9762;52.490;13.410;2023-07-16T07:32:06;2.38;;;2.17;;
19255;SDS011;9762;52.490;13.410;2023-07-16T07:34:32;2.53;;;2.33;;
19255;SDS011;9762;52.490;13.410;2023-07-16T07:36:58;2.65;;;2.55;;
19255;SDS011;9762;52.490;13.410;2023-07-16T07:39:23;2.35;;;2.20;;
19255;SDS011;9762;52.490;13.410;2023-07-16T07:41:49;2.58;;;2.30;;
19255;SDS011;9762;52.490;13.410;2023-07-16T07:44:15;3.10;;;2.88;;
19255;SDS011;9762;52.490;13.410;2023-07-16T07:46:40;2.58;;;2.30;;
19255;SDS011;9762;52.490;13.410;2023-07-16T07:49:06;2.13;;;2.03;;
19255;SDS011;9762;52.490;13.410;2023-07-16T07:51:31;3.20;;;2.50;;
19255;SDS011;9762;52.490;13.410;2023-07-16T07:53:57;2.38;;;2.28;;
19255;SDS011;9762;52.490;13.410;2023-07-16T07:56:22;2.92;;;2.20;;
19255;SDS011;9762;52.490;13.410;2023-07-16T07:58:48;2.30;;;2.10;;
19255;SDS011;9762;52.490;13.410;2023-07-16T08:01:14;2.70;;;2.50;;
19255;SDS011;9762;52.490;13.410;2023-07-16T08:03:39;2.63;;;2.50;;
19255;SDS011;9762;52.490;13.410;2023-07-16T08:06:05;2.63;;;2.33;;
19255;SDS011;9762;52.490;13.410;2023-07-16T08:08:30;2.72;;;2.63;;
19255;SDS011;9762;52.490;13.410;2023-07-16T08:10:56;2.33;;;2.22;;
19255;SDS011;9762;52.490;13.410;2023-07-16T08:13:21;2.58;;;2.20;;
19255;SDS011;9762;52.490;13.410;2023-07-16T08:15:47;2.53;;;2.40;;
19255;SDS011;9762;52.490;13.410;2023-07-16T08:18:13;2.20;;;2.10;;
19255;SDS011;9762;52.490;13.410;2023-07-16T08:20:38;6.05;;;2.00;;
19255;SDS011;9762;52.490;13.410;2023-07-16T08:23:06;1.92;;;1.80;;
19255;SDS011;9762;52.490;13.410;2023-07-16T08:25:31;2.30;;;1.85;;
19255;SDS011;9762;52.490;13.410;2023-07-16T08:27:57;1.98;;;1.65;;
19255;SDS011;9762;52.490;13.410;2023-07-16T08:30:22;3.58;;;2.03;;
19255;SDS011;9762;52.490;13.410;2023-07-16T08:32:48;2.67;;;2.10;;
19255;SDS011;9762;52.490;13.410;2023-07-16T08:35:15;1.92;;;1.80;;
19255;SDS011;9762;52.490;13.410;2023-07-16T08:37:41;2.10;;;2.00;;
19255;SDS011;9762;52.490;13.410;2023-07-16T08:40:08;3.20;;;2.08;;
19255;SDS011;9762;52.490;13.410;2023-07-16T08:42:36;2.42;;;2.13;;
19255;SDS011;9762;52.490;13.410;2023-07-16T08:45:03;2.20;;;1.88;;
19255;SDS011;9762;52.490;13.410;2023-07-16T08:47:31;2.13;;;2.00;;
19255;SDS011;9762;52.490;13.410;2023-07-16T08:49:59;2.25;;;2.15;;
19255;SDS011;9762;52.490;13.410;2023-07-16T08:52:27;2.35;;;1.63;;
19255;SDS011;9762;52.490;13.410;2023-07-16T08:54:53;2.38;;;1.63;;
19255;SDS011;9762;52.490;13.410;2023-07-16T08:57:19;3.95;;;2.05;;
19255;SDS011;9762;52.490;13.410;2023-07-16T08:59:47;1.92;;;1.83;;
19255;SDS011;9762;52.490;13.410;2023-07-16T09:02:15;5.10;;;1.80;;
19255;SDS011;9762;52.490;13.410;2023-07-16T09:04:48;1.83;;;1.73;;
19255;SDS011;9762;52.490;13.410;2023-07-16T09:07:15;3.53;;;2.20;;
19255;SDS011;9762;52.490;13.410;2023-07-16T09:09:41;2.03;;;1.92;;
19255;SDS011;9762;52.490;13.410;2023-07-16T09:12:06;2.15;;;2.05;;
19255;SDS011;9762;52.490;13.410;2023-07-16T09:14:36;2.42;;;2.22;;
19255;SDS011;9762;52.490;13.410;2023-07-16T09:17:01;3.35;;;1.90;;
19255;SDS011;9762;52.490;13.410;2023-07-16T09:19:27;1.63;;;1.60;;
19255;SDS011;9762;52.490;13.410;2023-07-16T09:21:56;2.40;;;2.30;;
19255;SDS011;9762;52.490;13.410;2023-07-16T09:24:22;2.58;;;2.30;;
19255;SDS011;9762;52.490;13.410;2023-07-16T09:26:48;2.92;;;1.88;;
19255;SDS011;9762;52.490;13.410;2023-07-16T09:29:18;5.60;;;2.22;;
19255;SDS011;9762;52.490;13.410;2023-07-16T09:32:17;3.55;;;2.13;;
19255;SDS011;9762;52.490;13.410;2023-07-16T09:34:36;2.90;;;2.20;;
19255;SDS011;9762;52.490;13.410;2023-07-16T09:37:03;3.42;;;2.22;;
19255;SDS011;9762;52.490;13.410;2023-07-16T09:39:30;2.35;;;2.25;;
19255;SDS011;9762;52.490;13.410;2023-07-16T09:41:57;2.33;;;2.00;;
19255;SDS011;9762;52.490;13.410;2023-07-16T09:44:23;2.15;;;2.08;;
19255;SDS011;9762;52.490;13.410;2023-07-16T09:46:48;2.55;;;1.95;;
19255;SDS011;9762;52.490;13.410;2023-07-16T09:49:14;2.60;;;2.08;;
19255;SDS011;9762;52.490;13.410;2023-07-16T09:51:40;3.65;;;2.15;;
19255;SDS011;9762;52.490;13.410;2023-07-16T09:54:08;4.38;;;2.30;;
19255;SDS011;9762;52.490;13.410;2023-07-16T09:56:38;4.07;;;2.20;;
19255;SDS011;9762;52.490;13.410;2023-07-16T09:59:14;3.10;;;1.85;;
19255;SDS011;9762;52.490;13.410;2023-07-16T10:01:43;2.17;;;2.08;;
19255;SDS011;9762;52.490;13.410;2023-07-16T10:04:12;3.17;;;2.10;;
19255;SDS011;9762;52.490;13.410;2023-07-16T10:06:55;2.13;;;1.73;;
19255;SDS011;9762;52.490;13.410;2023-07-16T10:09:36;5.80;;;2.20;;
19255;SDS011;9762;52.490;13.410;2023-07-16T10:17:18;2.55;;;2.35;;
19255;SDS011;9762;52.490;13.410;2023-07-16T10:19:59;2.00;;;1.92;;
19255;SDS011;9762;52.490;13.410;2023-07-16T10:25:09;2.75;;;2.28;;
19255;SDS011;9762;52.490;13.410;2023-07-16T10:27:35;6.03;;;2.00;;
19255;SDS011;9762;52.490;13.410;2023-07-16T10:30:01;6.03;;;1.90;;
19255;SDS011;9762;52.490;13.410;2023-07-16T10:32:28;2.20;;;1.90;;
19255;SDS011;9762;52.490;13.410;2023-07-16T10:34:55;3.15;;;2.45;;
19255;SDS011;9762;52.490;13.410;2023-07-16T10:37:21;4.25;;;2.20;;
19255;SDS011;9762;52.490;13.410;2023-07-16T10:39:48;3.95;;;2.08;;
19255;SDS011;9762;52.490;13.410;2023-07-16T10:42:17;2.90;;;2.63;;
19255;SDS011;9762;52.490;13.410;2023-07-16T10:44:44;2.13;;;2.03;;
19255;SDS011;9762;52.490;13.410;2023-07-16T10:49:49;2.67;;;2.35;;
19255;SDS011;9762;52.490;13.410;2023-07-16T10:52:17;3.13;;;2.40;;
19255;SDS011;9762;52.490;13.410;2023-07-16T10:54:43;3.25;;;2.95;;
19255;SDS011;9762;52.490;13.410;2023-07-16T10:57:10;2.13;;;2.00;;
19255;SDS011;9762;52.490;13.410;2023-07-16T10:59:39;5.18;;;2.20;;
19255;SDS011;9762;52.490;13.410;2023-07-16T11:02:10;2.50;;;2.17;;
19255;SDS011;9762;52.490;13.410;2023-07-16T11:04:37;2.88;;;2.42;;
19255;SDS011;9762;52.490;13.410;2023-07-16T11:07:06;5.18;;;1.90;;
19255;SDS011;9762;52.490;13.410;2023-07-16T11:09:33;2.63;;;2.47;;
19255;SDS011;9762;52.490;13.410;2023-07-16T11:12:05;3.42;;;2.05;;
19255;SDS011;9762;52.490;13.410;2023-07-16T11:14:32;1.77;;;1.67;;
19255;SDS011;9762;52.490;13.410;2023-07-16T11:17:03;3.03;;;2.25;;
19255;SDS011;9762;52.490;13.410;2023-07-16T11:19:31;2.05;;;1.95;;
19255;SDS011;9762;52.490;13.410;2023-07-16T11:21:57;2.33;;;2.20;;
19255;SDS011;9762;52.490;13.410;2023-07-16T11:24:23;2.50;;;2.30;;
19255;SDS011;9762;52.490;13.410;2023-07-16T11:26:56;2.17;;;2.08;;
19255;SDS011;9762;52.490;13.410;2023-07-16T11:29:24;2.30;;;2.20;;
19255;SDS011;9762;52.490;13.410;2023-07-16T11:31:51;2.20;;;2.00;;
19255;SDS011;9762;52.490;13.410;2023-07-16T11:34:19;2.53;;;2.28;;
19255;SDS011;9762;52.490;13.410;2023-07-16T11:36:46;2.70;;;2.50;;
19255;SDS011;9762;52.490;13.410;2023-07-16T11:39:12;2.38;;;2.20;;
19255;SDS011;9762;52.490;13.410;2023-07-16T11:41:38;4.22;;;2.47;;
19255;SDS011;9762;52.490;13.410;2023-07-16T11:44:04;3.22;;;2.40;;
19255;SDS011;9762;52.490;13.410;2023-07-16T11:46:33;2.53;;;2.30;;
19255;SDS011;9762;52.490;13.410;2023-07-16T11:48:59;2.25;;;2.15;;
19255;SDS011;9762;52.490;13.410;2023-07-16T11:51:25;2.70;;;2.10;;
19255;SDS011;9762;52.490;13.410;2023-07-16T11:53:51;3.70;;;2.60;;
19255;SDS011;9762;52.490;13.410;2023-07-16T11:56:17;1.88;;;1.88;;
19255;SDS011;9762;52.490;13.410;2023-07-16T11:58:42;3.00;;;2.03;;
19255;SDS011;9762;52.490;13.410;2023-07-16T12:01:08;2.58;;;2.38;;
19255;SDS011;9762;52.490;13.410;2023-07-16T12:03:34;2.95;;;2.78;;
19255;SDS011;9762;52.490;13.410;2023-07-16T12:06:00;2.35;;;2.15;;
19255;SDS011;9762;52.490;13.410;2023-07-16T12:08:25;3.20;;;2.70;;
19255;SDS011;9762;52.490;13.410;2023-07-16T12:10:51;6.68;;;2.90;;
19255;SDS011;9762;52.490;13.410;2023-07-16T12:13:17;2.15;;;2.00;;
19255;SDS011;9762;52.490;13.410;2023-07-16T12:15:42;4.05;;;2.53;;
19255;SDS011;9762;52.490;13.410;2023-07-16T12:18:08;2.38;;;1.98;;
19255;SDS011;9762;52.490;13.410;2023-07-16T12:20:34;2.80;;;2.65;;
19255;SDS011;9762;52.490;13.410;2023-07-16T12:23:01;3.45;;;2.38;;
19255;SDS011;9762;52.490;13.410;2023-07-16T12:25:28;2.33;;;2.08;;
19255;SDS011;9762;52.490;13.410;2023-07-16T12:27:53;2.53;;;2.42;;
19255;SDS011;9762;52.490;13.410;2023-07-16T12:30:19;2.50;;;2.00;;
19255;SDS011;9762;52.490;13.410;2023-07-16T12:32:45;2.25;;;2.10;;
19255;SDS011;9762;52.490;13.410;2023-07-16T12:35:11;4.13;;;2.38;;
19255;SDS011;9762;52.490;13.410;2023-07-16T12:37:36;2.17;;;2.03;;
19255;SDS011;9762;52.490;13.410;2023-07-16T12:40:02;3.17;;;1.98;;
19255;SDS011;9762;52.490;13.410;2023-07-16T12:42:28;5.70;;;1.95;;
19255;SDS011;9762;52.490;13.410;2023-07-16T12:44:54;2.80;;;2.00;;
19255;SDS011;9762;52.490;13.410;2023-07-16T12:47:19;2.67;;;2.58;;
19255;SDS011;9762;52.490;13.410;2023-07-16T12:49:45;2.10;;;2.00;;
19255;SDS011;9762;52.490;13.410;2023-07-16T12:52:11;1.73;;;1.73;;
19255;SDS011;9762;52.490;13.410;2023-07-16T12:54:36;3.58;;;2.72;;
19255;SDS011;9762;52.490;13.410;2023-07-16T12:57:02;4.07;;;2.45;;
19255;SDS011;9762;52.490;13.410;2023-07-16T12:59:28;5.93;;;2.30;;
19255;SDS011;9762;52.490;13.410;2023-07-16T13:01:53;2.58;;;2.38;;
19255;SDS011;9762;52.490;13.410;2023-07-16T13:04:19;2.50;;;2.30;;
19255;SDS011;9762;52.490;13.410;2023-07-16T13:06:45;4.30;;;2.28;;
19255;SDS011;9762;52.490;13.410;2023-07-16T13:09:13;2.85;;;2.45;;
19255;SDS011;9762;52.490;13.410;2023-07-16T13:11:39;8.13;;;2.47;;
19255;SDS011;9762;52.490;13.410;2023-07-16T13:14:05;3.90;;;2.25;;
19255;SDS011;9762;52.490;13.410;2023-07-16T13:16:31;2.30;;;2.08;;
19255;SDS011;9762;52.490;13.410;2023-07-16T13:18:57;1.88;;;1.77;;
19255;SDS011;9762;52.490;13.410;2023-07-16T13:21:22;2.25;;;2.05;;
19255;SDS011;9762;52.490;13.410;2023-07-16T13:23:48;2.60;;;2.25;;
19255;SDS011;9762;52.490;13.410;2023-07-16T13:26:13;2.58;;;2.38;;
19255;SDS011;9762;52.490;13.410;2023-07-16T13:28:39;2.30;;;2.20;;
19255;SDS011;9762;52.490;13.410;2023-07-16T13:31:05;2.17;;;2.08;;
19255;SDS011;9762;52.490;13.410;2023-07-16T13:33:31;2.38;;;2.17;;
19255;SDS011;9762;52.490;13.410;2023-07-16T13:35:56;3.38;;;2.22;;
19255;SDS011;9762;52.490;13.410;2023-07-16T13:38:25;4.47;;;2.13;;
19255;SDS011;9762;52.490;13.410;2023-07-16T13:40:50;3.63;;;2.55;;
19255;SDS011;9762;52.490;13.410;2023-07-16T13:43:16;2.33;;;2.22;;
19255;SDS011;9762;52.490;13.410;2023-07-16T13:45:42;4.55;;;2.40;;
19255;SDS011;9762;52.490;13.410;2023-07-16T13:48:07;2.10;;;2.00;;
19255;SDS011;9762;52.490;13.410;2023-07-16T13:50:33;2.47;;;2.38;;
19255;SDS011;9762;52.490;13.410;2023-07-16T13:52:58;2.97;;;2.15;;
19255;SDS011;9762;52.490;13.410;2023-07-16T13:55:26;4.43;;;1.95;;
19255;SDS011;9762;52.490;13.410;2023-07-16T13:57:52;3.90;;;2.58;;
19255;SDS011;9762;52.490;13.410;2023-07-16T14:00:18;2.55;;;2.00;;
19255;SDS011;9762;52.490;13.410;2023-07-16T14:02:45;6.35;;;2.22;;
19255;SDS011;9762;52.490;13.410;2023-07-16T14:05:10;2.40;;;2.20;;
19255;SDS011;9762;52.490;13.410;2023-07-16T14:07:36;2.17;;;2.08;;
19255;SDS011;9762;52.490;13.410;2023-07-16T14:10:01;5.38;;;2.40;;
19255;SDS011;9762;52.490;13.410;2023-07-16T14:12:27;5.15;;;2.25;;
19255;SDS011;9762;52.490;13.410;2023-07-16T14:14:53;2.92;;;2.05;;
19255;SDS011;9762;52.490;13.410;2023-07-16T14:17:19;2.67;;;2.00;;
19255;SDS011;9762;52.490;13.410;2023-07-16T14:19:45;2.20;;;2.10;;
19255;SDS011;9762;52.490;13.410;2023-07-16T14:22:10;3.28;;;2.13;;
19255;SDS011;9762;52.490;13.410;2023-07-16T14:24:38;2.08;;;1.90;;
19255;SDS011;9762;52.490;13.410;2023-07-16T14:27:05;2.42;;;2.25;;
19255;SDS011;9762;52.490;13.410;2023-07-16T14:29:32;2.45;;;2.35;;
19255;SDS011;9762;52.490;13.410;2023-07-16T14:31:57;4.10;;;2.22;;
19255;SDS011;9762;52.490;13.410;2023-07-16T14:34:25;7.05;;;2.35;;
19255;SDS011;9762;52.490;13.410;2023-07-16T14:36:51;3.35;;;2.35;;
19255;SDS011;9762;52.490;13.410;2023-07-16T14:39:17;5.47;;;4.18;;
19255;SDS011;9762;52.490;13.410;2023-07-16T14:41:43;11.15;;;5.35;;
19255;SDS011;9762;52.490;13.410;2023-07-16T14:44:08;3.20;;;2.65;;
19255;SDS011;9762;52.490;13.410;2023-07-16T14:46:34;10.48;;;5.20;;
19255;SDS011;9762;52.490;13.410;2023-07-16T14:49:00;5.03;;;4.53;;
19255;SDS011;9762;52.490;13.410;2023-07-16T14:51:27;7.82;;;7.13;;
19255;SDS011;9762;52.490;13.410;2023-07-16T14:53:52;5.05;;;3.28;;
19255;SDS011;9762;52.490;13.410;2023-07-16T14:56:18;6.03;;;4.45;;
19255;SDS011;9762;52.490;13.410;2023-07-16T14:58:44;6.68;;;5.18;;
19255;SDS011;9762;52.490;13.410;2023-07-16T15:01:10;3.65;;;3.45;;